sensor_id;sensor_type;location;lat;lon;timestamp;temperature;humidity
48264;DHT22;34086;51.076;13.722;2022-08-05T00:00:44;25.50;65.30
48264;DHT22;34086;51.076;13.722;2022-08-05T00:01:44;25.50;65.30
48264;DHT22;34086;51.076;13.722;2022-08-05T00:02:46;25.50;65.30
48264;DHT22;34086;51.076;13.722;2022-08-05T00:03:48;25.40;65.30
48264;DHT22;34086;51.076;13.722;2022-08-05T00:04:49;25.40;65.40
48264;DHT22;34086;51.076;13.722;2022-08-05T00:05:49;25.40;65.50
48264;DHT22;34086;51.076;13.722;2022-08-05T00:06:50;25.40;65.60
48264;DHT22;34086;51.076;13.722;2022-08-05T00:07:51;25.40;65.90
48264;DHT22;34086;51.076;13.722;2022-08-05T00:08:51;25.40;66.10
48264;DHT22;34086;51.076;13.722;2022-08-05T00:09:52;25.30;66.10
48264;DHT22;34086;51.076;13.722;2022-08-05T00:10:52;25.40;66.30
48264;DHT22;34086;51.076;13.722;2022-08-05T00:11:53;25.30;66.30
48264;DHT22;34086;51.076;13.722;2022-08-05T00:12:54;25.30;66.20
48264;DHT22;34086;51.076;13.722;2022-08-05T00:13:54;25.30;66.30
48264;DHT22;34086;51.076;13.722;2022-08-05T00:14:55;25.30;66.30
48264;DHT22;34086;51.076;13.722;2022-08-05T00:15:56;25.30;66.30
48264;DHT22;34086;51.076;13.722;2022-08-05T00:16:56;25.30;66.30
48264;DHT22;34086;51.076;13.722;2022-08-05T00:17:57;25.30;66.30
48264;DHT22;34086;51.076;13.722;2022-08-05T00:18:58;25.20;66.30
48264;DHT22;34086;51.076;13.722;2022-08-05T00:19:58;25.20;66.30
48264;DHT22;34086;51.076;13.722;2022-08-05T00:20:59;25.20;66.40
48264;DHT22;34086;51.076;13.722;2022-08-05T00:22:01;25.20;66.40
48264;DHT22;34086;51.076;13.722;2022-08-05T00:23:02;25.20;66.40
48264;DHT22;34086;51.076;13.722;2022-08-05T00:24:03;25.20;66.60
48264;DHT22;34086;51.076;13.722;2022-08-05T00:25:04;25.20;66.70
48264;DHT22;34086;51.076;13.722;2022-08-05T00:26:06;25.10;66.80
48264;DHT22;34086;51.076;13.722;2022-08-05T00:27:07;25.10;66.80
48264;DHT22;34086;51.076;13.722;2022-08-05T00:28:07;25.10;66.90
48264;DHT22;34086;51.076;13.722;2022-08-05T00:29:08;25.10;66.90
48264;DHT22;34086;51.076;13.722;2022-08-05T00:30:09;25.10;66.90
48264;DHT22;34086;51.076;13.722;2022-08-05T00:31:10;25.10;67.00
48264;DHT22;34086;51.076;13.722;2022-08-05T00:32:10;25.10;67.80
48264;DHT22;34086;51.076;13.722;2022-08-05T00:33:12;25.00;67.00
48264;DHT22;34086;51.076;13.722;2022-08-05T00:34:15;25.00;67.00
48264;DHT22;34086;51.076;13.722;2022-08-05T00:35:16;25.00;67.10
48264;DHT22;34086;51.076;13.722;2022-08-05T00:36:17;25.00;67.20
48264;DHT22;34086;51.076;13.722;2022-08-05T00:37:17;25.00;67.30
48264;DHT22;34086;51.076;13.722;2022-08-05T00:38:18;25.00;67.30
48264;DHT22;34086;51.076;13.722;2022-08-05T00:39:18;25.00;68.50
48264;DHT22;34086;51.076;13.722;2022-08-05T00:40:21;25.00;71.60
48264;DHT22;34086;51.076;13.722;2022-08-05T00:41:29;25.00;72.70
48264;DHT22;34086;51.076;13.722;2022-08-05T00:42:33;24.90;74.00
48264;DHT22;34086;51.076;13.722;2022-08-05T00:43:34;24.90;74.10
48264;DHT22;34086;51.076;13.722;2022-08-05T00:44:36;24.90;74.60
48264;DHT22;34086;51.076;13.722;2022-08-05T00:45:36;24.90;75.20
48264;DHT22;34086;51.076;13.722;2022-08-05T00:46:37;24.90;74.30
48264;DHT22;34086;51.076;13.722;2022-08-05T00:47:38;24.80;74.80
48264;DHT22;34086;51.076;13.722;2022-08-05T00:48:39;24.80;73.90
48264;DHT22;34086;51.076;13.722;2022-08-05T00:49:40;24.80;73.50
48264;DHT22;34086;51.076;13.722;2022-08-05T00:50:43;24.80;73.70
48264;DHT22;34086;51.076;13.722;2022-08-05T00:51:44;24.70;73.50
48264;DHT22;34086;51.076;13.722;2022-08-05T00:52:45;24.70;73.70
48264;DHT22;34086;51.076;13.722;2022-08-05T00:53:47;24.70;73.80
48264;DHT22;34086;51.076;13.722;2022-08-05T00:54:48;24.70;73.80
48264;DHT22;34086;51.076;13.722;2022-08-05T00:55:49;24.60;73.90
48264;DHT22;34086;51.076;13.722;2022-08-05T00:56:50;24.60;73.80
48264;DHT22;34086;51.076;13.722;2022-08-05T00:57:51;24.60;73.70
48264;DHT22;34086;51.076;13.722;2022-08-05T00:58:51;24.60;73.60
48264;DHT22;34086;51.076;13.722;2022-08-05T00:59:52;24.60;73.30
48264;DHT22;34086;51.076;13.722;2022-08-05T01:00:53;24.60;73.40
48264;DHT22;34086;51.076;13.722;2022-08-05T01:01:53;24.60;73.20
48264;DHT22;34086;51.076;13.722;2022-08-05T01:02:55;24.50;73.20
48264;DHT22;34086;51.076;13.722;2022-08-05T01:03:56;24.50;73.10
48264;DHT22;34086;51.076;13.722;2022-08-05T01:04:56;24.50;73.00
48264;DHT22;34086;51.076;13.722;2022-08-05T01:05:57;24.50;72.90
48264;DHT22;34086;51.076;13.722;2022-08-05T01:06:58;24.50;72.80
48264;DHT22;34086;51.076;13.722;2022-08-05T01:07:59;24.50;72.90
48264;DHT22;34086;51.076;13.722;2022-08-05T01:08:59;24.50;72.90
48264;DHT22;34086;51.076;13.722;2022-08-05T01:10:00;24.40;72.80
48264;DHT22;34086;51.076;13.722;2022-08-05T01:11:10;24.40;72.70
48264;DHT22;34086;51.076;13.722;2022-08-05T01:12:13;24.40;72.70
48264;DHT22;34086;51.076;13.722;2022-08-05T01:15:55;24.40;72.50
48264;DHT22;34086;51.076;13.722;2022-08-05T01:17:13;24.30;72.60
48264;DHT22;34086;51.076;13.722;2022-08-05T01:18:21;24.30;72.60
48264;DHT22;34086;51.076;13.722;2022-08-05T01:19:37;24.30;72.60
48264;DHT22;34086;51.076;13.722;2022-08-05T01:21:08;24.30;72.50
48264;DHT22;34086;51.076;13.722;2022-08-05T01:28:12;24.30;72.20
48264;DHT22;34086;51.076;13.722;2022-08-05T01:29:28;24.30;72.20
48264;DHT22;34086;51.076;13.722;2022-08-05T01:30:34;24.30;72.20
48264;DHT22;34086;51.076;13.722;2022-08-05T01:31:51;24.30;72.20
48264;DHT22;34086;51.076;13.722;2022-08-05T01:32:55;24.30;72.20
48264;DHT22;34086;51.076;13.722;2022-08-05T01:34:21;24.30;72.20
48264;DHT22;34086;51.076;13.722;2022-08-05T01:35:26;24.30;72.20
48264;DHT22;34086;51.076;13.722;2022-08-05T01:36:33;24.30;72.30
48264;DHT22;34086;51.076;13.722;2022-08-05T01:37:42;24.30;72.40
48264;DHT22;34086;51.076;13.722;2022-08-05T01:38:44;24.20;72.40
48264;DHT22;34086;51.076;13.722;2022-08-05T01:39:48;24.20;72.40
48264;DHT22;34086;51.076;13.722;2022-08-05T01:40:51;24.20;72.40
48264;DHT22;34086;51.076;13.722;2022-08-05T01:41:53;24.20;72.60
48264;DHT22;34086;51.076;13.722;2022-08-05T01:42:56;24.20;72.60
48264;DHT22;34086;51.076;13.722;2022-08-05T01:43:57;24.20;72.60
48264;DHT22;34086;51.076;13.722;2022-08-05T01:45:00;24.20;72.70
48264;DHT22;34086;51.076;13.722;2022-08-05T01:46:01;24.10;72.60
48264;DHT22;34086;51.076;13.722;2022-08-05T01:47:03;24.10;72.60
48264;DHT22;34086;51.076;13.722;2022-08-05T01:48:05;24.10;72.70
48264;DHT22;34086;51.076;13.722;2022-08-05T01:49:09;24.10;72.70
48264;DHT22;34086;51.076;13.722;2022-08-05T01:50:15;24.10;72.70
48264;DHT22;34086;51.076;13.722;2022-08-05T01:51:17;24.10;72.80
48264;DHT22;34086;51.076;13.722;2022-08-05T01:52:20;24.10;72.80
48264;DHT22;34086;51.076;13.722;2022-08-05T01:53:23;24.10;72.90
48264;DHT22;34086;51.076;13.722;2022-08-05T01:54:28;24.00;72.90
48264;DHT22;34086;51.076;13.722;2022-08-05T01:55:32;24.10;72.90
48264;DHT22;34086;51.076;13.722;2022-08-05T01:56:37;24.00;72.80
48264;DHT22;34086;51.076;13.722;2022-08-05T01:57:41;24.00;72.80
48264;DHT22;34086;51.076;13.722;2022-08-05T01:58:43;24.00;72.70
48264;DHT22;34086;51.076;13.722;2022-08-05T01:59:45;24.00;72.60
48264;DHT22;34086;51.076;13.722;2022-08-05T02:00:50;24.00;72.50
48264;DHT22;34086;51.076;13.722;2022-08-05T02:01:53;24.00;72.40
48264;DHT22;34086;51.076;13.722;2022-08-05T02:02:59;24.00;72.40
48264;DHT22;34086;51.076;13.722;2022-08-05T02:04:02;24.00;72.30
48264;DHT22;34086;51.076;13.722;2022-08-05T02:05:06;24.00;72.40
48264;DHT22;34086;51.076;13.722;2022-08-05T02:06:08;24.00;72.60
48264;DHT22;34086;51.076;13.722;2022-08-05T02:07:13;24.00;72.40
48264;DHT22;34086;51.076;13.722;2022-08-05T02:08:14;24.00;72.20
48264;DHT22;34086;51.076;13.722;2022-08-05T02:09:15;24.00;73.00
48264;DHT22;34086;51.076;13.722;2022-08-05T02:10:15;24.00;72.20
48264;DHT22;34086;51.076;13.722;2022-08-05T02:11:17;24.00;72.20
48264;DHT22;34086;51.076;13.722;2022-08-05T02:13:34;24.00;72.30
48264;DHT22;34086;51.076;13.722;2022-08-05T02:14:46;23.90;72.40
48264;DHT22;34086;51.076;13.722;2022-08-05T02:15:49;23.90;72.50
48264;DHT22;34086;51.076;13.722;2022-08-05T02:16:54;23.90;72.30
48264;DHT22;34086;51.076;13.722;2022-08-05T02:18:12;23.90;71.70
48264;DHT22;34086;51.076;13.722;2022-08-05T02:20:31;23.90;72.40
48264;DHT22;34086;51.076;13.722;2022-08-05T02:21:38;23.90;72.40
48264;DHT22;34086;51.076;13.722;2022-08-05T02:22:42;23.90;72.50
48264;DHT22;34086;51.076;13.722;2022-08-05T02:23:49;23.90;72.60
48264;DHT22;34086;51.076;13.722;2022-08-05T02:25:04;23.80;72.60
48264;DHT22;34086;51.076;13.722;2022-08-05T02:26:08;23.80;72.70
48264;DHT22;34086;51.076;13.722;2022-08-05T02:27:11;23.80;72.80
48264;DHT22;34086;51.076;13.722;2022-08-05T02:28:12;23.80;72.80
48264;DHT22;34086;51.076;13.722;2022-08-05T02:29:17;23.80;73.00
48264;DHT22;34086;51.076;13.722;2022-08-05T02:30:19;23.80;73.10
48264;DHT22;34086;51.076;13.722;2022-08-05T02:31:26;23.70;73.10
48264;DHT22;34086;51.076;13.722;2022-08-05T02:32:30;23.80;73.20
48264;DHT22;34086;51.076;13.722;2022-08-05T02:33:36;23.70;73.10
48264;DHT22;34086;51.076;13.722;2022-08-05T02:34:39;23.70;73.20
48264;DHT22;34086;51.076;13.722;2022-08-05T02:35:41;23.70;73.30
48264;DHT22;34086;51.076;13.722;2022-08-05T02:36:53;23.70;73.40
48264;DHT22;34086;51.076;13.722;2022-08-05T02:37:55;23.70;73.50
48264;DHT22;34086;51.076;13.722;2022-08-05T02:38:57;23.70;73.40
48264;DHT22;34086;51.076;13.722;2022-08-05T02:40:03;23.60;73.50
48264;DHT22;34086;51.076;13.722;2022-08-05T02:41:05;23.60;73.60
48264;DHT22;34086;51.076;13.722;2022-08-05T02:42:08;23.60;73.60
48264;DHT22;34086;51.076;13.722;2022-08-05T02:43:13;23.60;73.50
48264;DHT22;34086;51.076;13.722;2022-08-05T02:44:15;23.60;73.50
48264;DHT22;34086;51.076;13.722;2022-08-05T02:45:17;23.60;73.70
48264;DHT22;34086;51.076;13.722;2022-08-05T02:46:19;23.60;73.60
48264;DHT22;34086;51.076;13.722;2022-08-05T02:47:21;23.60;73.50
48264;DHT22;34086;51.076;13.722;2022-08-05T02:48:23;23.60;73.60
48264;DHT22;34086;51.076;13.722;2022-08-05T02:49:27;23.60;73.50
48264;DHT22;34086;51.076;13.722;2022-08-05T02:50:29;23.60;73.40
48264;DHT22;34086;51.076;13.722;2022-08-05T02:51:30;23.60;73.40
48264;DHT22;34086;51.076;13.722;2022-08-05T02:52:31;23.60;73.50
48264;DHT22;34086;51.076;13.722;2022-08-05T02:53:33;23.60;73.60
48264;DHT22;34086;51.076;13.722;2022-08-05T02:54:36;23.60;73.70
48264;DHT22;34086;51.076;13.722;2022-08-05T02:55:37;23.60;73.70
48264;DHT22;34086;51.076;13.722;2022-08-05T02:56:40;23.50;73.50
48264;DHT22;34086;51.076;13.722;2022-08-05T02:57:43;23.50;73.30
48264;DHT22;34086;51.076;13.722;2022-08-05T02:58:44;23.50;73.30
48264;DHT22;34086;51.076;13.722;2022-08-05T02:59:47;23.50;73.40
48264;DHT22;34086;51.076;13.722;2022-08-05T03:00:50;23.50;73.40
48264;DHT22;34086;51.076;13.722;2022-08-05T03:01:53;23.50;73.40
48264;DHT22;34086;51.076;13.722;2022-08-05T03:02:57;23.50;73.40
48264;DHT22;34086;51.076;13.722;2022-08-05T03:04:02;23.50;73.40
48264;DHT22;34086;51.076;13.722;2022-08-05T03:05:04;23.50;73.60
48264;DHT22;34086;51.076;13.722;2022-08-05T03:06:08;23.50;73.80
48264;DHT22;34086;51.076;13.722;2022-08-05T03:07:10;23.50;73.80
48264;DHT22;34086;51.076;13.722;2022-08-05T03:08:12;23.50;73.80
48264;DHT22;34086;51.076;13.722;2022-08-05T03:09:14;23.50;73.80
48264;DHT22;34086;51.076;13.722;2022-08-05T03:10:15;23.50;73.80
48264;DHT22;34086;51.076;13.722;2022-08-05T03:11:24;23.40;73.90
48264;DHT22;34086;51.076;13.722;2022-08-05T03:12:35;23.40;73.80
48264;DHT22;34086;51.076;13.722;2022-08-05T03:13:38;23.40;73.90
48264;DHT22;34086;51.076;13.722;2022-08-05T03:14:38;23.40;73.90
48264;DHT22;34086;51.076;13.722;2022-08-05T03:15:43;23.40;74.00
48264;DHT22;34086;51.076;13.722;2022-08-05T03:16:45;23.40;74.00
48264;DHT22;34086;51.076;13.722;2022-08-05T03:17:45;23.40;74.00
48264;DHT22;34086;51.076;13.722;2022-08-05T03:18:46;23.40;73.90
48264;DHT22;34086;51.076;13.722;2022-08-05T03:19:47;23.40;73.60
48264;DHT22;34086;51.076;13.722;2022-08-05T03:20:47;23.40;73.70
48264;DHT22;34086;51.076;13.722;2022-08-05T03:21:48;23.40;73.60
48264;DHT22;34086;51.076;13.722;2022-08-05T03:22:49;23.40;73.50
48264;DHT22;34086;51.076;13.722;2022-08-05T03:23:50;23.40;73.30
48264;DHT22;34086;51.076;13.722;2022-08-05T03:24:51;23.40;73.30
48264;DHT22;34086;51.076;13.722;2022-08-05T03:25:53;23.40;73.20
48264;DHT22;34086;51.076;13.722;2022-08-05T03:26:54;23.40;73.20
48264;DHT22;34086;51.076;13.722;2022-08-05T03:27:55;23.40;73.20
48264;DHT22;34086;51.076;13.722;2022-08-05T03:28:57;23.40;73.50
48264;DHT22;34086;51.076;13.722;2022-08-05T03:29:57;23.40;74.20
48264;DHT22;34086;51.076;13.722;2022-08-05T03:31:00;23.40;74.40
48264;DHT22;34086;51.076;13.722;2022-08-05T03:32:02;23.50;76.20
48264;DHT22;34086;51.076;13.722;2022-08-05T03:33:04;23.50;75.80
48264;DHT22;34086;51.076;13.722;2022-08-05T03:34:05;23.50;76.10
48264;DHT22;34086;51.076;13.722;2022-08-05T03:35:07;23.50;76.80
48264;DHT22;34086;51.076;13.722;2022-08-05T03:36:07;23.50;78.00
48264;DHT22;34086;51.076;13.722;2022-08-05T03:37:10;23.50;77.00
48264;DHT22;34086;51.076;13.722;2022-08-05T03:38:11;23.50;76.70
48264;DHT22;34086;51.076;13.722;2022-08-05T03:39:12;23.50;76.20
48264;DHT22;34086;51.076;13.722;2022-08-05T03:40:13;23.50;75.90
48264;DHT22;34086;51.076;13.722;2022-08-05T03:41:15;23.50;76.00
48264;DHT22;34086;51.076;13.722;2022-08-05T03:42:16;23.60;76.50
48264;DHT22;34086;51.076;13.722;2022-08-05T03:43:17;23.50;76.50
48264;DHT22;34086;51.076;13.722;2022-08-05T03:44:17;23.60;76.60
48264;DHT22;34086;51.076;13.722;2022-08-05T03:45:18;23.50;75.90
48264;DHT22;34086;51.076;13.722;2022-08-05T03:46:19;23.60;75.50
48264;DHT22;34086;51.076;13.722;2022-08-05T03:47:20;23.50;74.80
48264;DHT22;34086;51.076;13.722;2022-08-05T03:48:20;23.60;74.50
48264;DHT22;34086;51.076;13.722;2022-08-05T03:49:21;23.50;74.30
48264;DHT22;34086;51.076;13.722;2022-08-05T03:50:22;23.50;74.30
48264;DHT22;34086;51.076;13.722;2022-08-05T03:51:32;23.50;74.30
48264;DHT22;34086;51.076;13.722;2022-08-05T03:52:40;23.50;74.50
48264;DHT22;34086;51.076;13.722;2022-08-05T03:54:04;23.50;75.10
48264;DHT22;34086;51.076;13.722;2022-08-05T03:55:09;23.50;74.90
48264;DHT22;34086;51.076;13.722;2022-08-05T03:56:41;23.50;75.00
48264;DHT22;34086;51.076;13.722;2022-08-05T03:57:43;23.50;74.60
48264;DHT22;34086;51.076;13.722;2022-08-05T03:58:46;23.50;74.60
48264;DHT22;34086;51.076;13.722;2022-08-05T03:59:57;23.50;74.50
48264;DHT22;34086;51.076;13.722;2022-08-05T04:00:58;23.50;74.60
48264;DHT22;34086;51.076;13.722;2022-08-05T04:02:01;23.50;74.50
48264;DHT22;34086;51.076;13.722;2022-08-05T04:03:05;23.50;74.60
48264;DHT22;34086;51.076;13.722;2022-08-05T04:04:07;23.50;74.80
48264;DHT22;34086;51.076;13.722;2022-08-05T04:05:10;23.50;74.80
48264;DHT22;34086;51.076;13.722;2022-08-05T04:06:12;23.50;75.40
48264;DHT22;34086;51.076;13.722;2022-08-05T04:07:13;23.50;75.10
48264;DHT22;34086;51.076;13.722;2022-08-05T04:08:14;23.50;75.10
48264;DHT22;34086;51.076;13.722;2022-08-05T04:09:16;23.50;75.00
48264;DHT22;34086;51.076;13.722;2022-08-05T04:10:18;23.50;74.90
48264;DHT22;34086;51.076;13.722;2022-08-05T04:11:19;23.50;74.80
48264;DHT22;34086;51.076;13.722;2022-08-05T04:12:20;23.50;74.80
48264;DHT22;34086;51.076;13.722;2022-08-05T04:13:22;23.50;74.90
48264;DHT22;34086;51.076;13.722;2022-08-05T04:14:26;23.50;74.80
48264;DHT22;34086;51.076;13.722;2022-08-05T04:15:27;23.50;74.80
48264;DHT22;34086;51.076;13.722;2022-08-05T04:16:28;23.50;74.80
48264;DHT22;34086;51.076;13.722;2022-08-05T04:17:29;23.60;74.70
48264;DHT22;34086;51.076;13.722;2022-08-05T04:18:30;23.60;74.70
48264;DHT22;34086;51.076;13.722;2022-08-05T04:19:44;23.60;74.60
48264;DHT22;34086;51.076;13.722;2022-08-05T04:20:52;23.60;74.60
48264;DHT22;34086;51.076;13.722;2022-08-05T04:21:52;23.60;74.60
48264;DHT22;34086;51.076;13.722;2022-08-05T04:22:53;23.60;74.60
48264;DHT22;34086;51.076;13.722;2022-08-05T04:23:54;23.70;74.50
48264;DHT22;34086;51.076;13.722;2022-08-05T04:24:55;23.80;74.10
48264;DHT22;34086;51.076;13.722;2022-08-05T04:25:56;24.00;73.80
48264;DHT22;34086;51.076;13.722;2022-08-05T04:26:56;24.10;73.40
48264;DHT22;34086;51.076;13.722;2022-08-05T04:27:57;24.30;73.00
48264;DHT22;34086;51.076;13.722;2022-08-05T04:28:58;24.40;72.50
48264;DHT22;34086;51.076;13.722;2022-08-05T04:29:58;24.40;72.30
48264;DHT22;34086;51.076;13.722;2022-08-05T04:30:59;24.50;72.70
48264;DHT22;34086;51.076;13.722;2022-08-05T04:32:00;24.70;73.50
48264;DHT22;34086;51.076;13.722;2022-08-05T04:33:01;24.80;73.70
48264;DHT22;34086;51.076;13.722;2022-08-05T04:34:02;25.00;73.30
48264;DHT22;34086;51.076;13.722;2022-08-05T04:35:03;25.30;72.30
48264;DHT22;34086;51.076;13.722;2022-08-05T04:36:04;25.60;71.00
48264;DHT22;34086;51.076;13.722;2022-08-05T04:37:04;25.80;70.10
48264;DHT22;34086;51.076;13.722;2022-08-05T04:38:05;26.10;69.30
48264;DHT22;34086;51.076;13.722;2022-08-05T04:39:05;26.30;68.30
48264;DHT22;34086;51.076;13.722;2022-08-05T04:40:07;26.50;67.60
48264;DHT22;34086;51.076;13.722;2022-08-05T04:41:08;26.80;67.00
48264;DHT22;34086;51.076;13.722;2022-08-05T04:42:08;26.90;66.40
48264;DHT22;34086;51.076;13.722;2022-08-05T04:43:09;27.10;65.90
48264;DHT22;34086;51.076;13.722;2022-08-05T04:44:10;27.30;65.30
48264;DHT22;34086;51.076;13.722;2022-08-05T04:45:10;27.40;64.80
48264;DHT22;34086;51.076;13.722;2022-08-05T04:46:11;27.50;64.60
48264;DHT22;34086;51.076;13.722;2022-08-05T04:47:12;27.70;64.80
48264;DHT22;34086;51.076;13.722;2022-08-05T04:48:13;27.80;63.50
48264;DHT22;34086;51.076;13.722;2022-08-05T04:49:14;27.90;63.00
48264;DHT22;34086;51.076;13.722;2022-08-05T04:50:14;28.00;62.60
48264;DHT22;34086;51.076;13.722;2022-08-05T04:51:15;28.10;62.20
48264;DHT22;34086;51.076;13.722;2022-08-05T04:52:17;28.10;61.30
48264;DHT22;34086;51.076;13.722;2022-08-05T04:53:18;28.20;60.90
48264;DHT22;34086;51.076;13.722;2022-08-05T04:54:18;28.30;60.70
48264;DHT22;34086;51.076;13.722;2022-08-05T04:55:19;28.40;60.60
48264;DHT22;34086;51.076;13.722;2022-08-05T04:56:19;28.50;60.70
48264;DHT22;34086;51.076;13.722;2022-08-05T04:57:20;28.60;60.60
48264;DHT22;34086;51.076;13.722;2022-08-05T04:58:21;28.70;60.20
48264;DHT22;34086;51.076;13.722;2022-08-05T04:59:21;28.80;59.80
48264;DHT22;34086;51.076;13.722;2022-08-05T05:00:22;28.90;59.50
48264;DHT22;34086;51.076;13.722;2022-08-05T05:01:23;28.90;59.30
48264;DHT22;34086;51.076;13.722;2022-08-05T05:02:24;29.00;59.30
48264;DHT22;34086;51.076;13.722;2022-08-05T05:03:25;29.10;59.20
48264;DHT22;34086;51.076;13.722;2022-08-05T05:04:25;29.20;58.80
48264;DHT22;34086;51.076;13.722;2022-08-05T05:05:26;29.30;58.70
48264;DHT22;34086;51.076;13.722;2022-08-05T05:06:27;29.30;58.50
48264;DHT22;34086;51.076;13.722;2022-08-05T05:07:28;29.40;58.50
48264;DHT22;34086;51.076;13.722;2022-08-05T05:08:28;29.50;58.20
48264;DHT22;34086;51.076;13.722;2022-08-05T05:09:29;29.60;58.10
48264;DHT22;34086;51.076;13.722;2022-08-05T05:10:31;29.60;57.60
48264;DHT22;34086;51.076;13.722;2022-08-05T05:11:32;29.60;57.10
48264;DHT22;34086;51.076;13.722;2022-08-05T05:12:32;29.70;57.00
48264;DHT22;34086;51.076;13.722;2022-08-05T05:13:33;29.50;56.80
48264;DHT22;34086;51.076;13.722;2022-08-05T05:14:34;29.60;56.90
48264;DHT22;34086;51.076;13.722;2022-08-05T05:15:34;29.60;56.80
48264;DHT22;34086;51.076;13.722;2022-08-05T05:16:35;29.70;56.70
48264;DHT22;34086;51.076;13.722;2022-08-05T05:17:37;29.90;56.60
48264;DHT22;34086;51.076;13.722;2022-08-05T05:18:38;29.90;56.40
48264;DHT22;34086;51.076;13.722;2022-08-05T05:19:39;29.90;56.20
48264;DHT22;34086;51.076;13.722;2022-08-05T05:20:45;30.10;56.10
48264;DHT22;34086;51.076;13.722;2022-08-05T05:21:45;30.10;55.90
48264;DHT22;34086;51.076;13.722;2022-08-05T05:22:46;30.10;55.80
48264;DHT22;34086;51.076;13.722;2022-08-05T05:23:47;30.10;55.60
48264;DHT22;34086;51.076;13.722;2022-08-05T05:24:47;30.10;55.50
48264;DHT22;34086;51.076;13.722;2022-08-05T05:25:48;30.00;56.10
48264;DHT22;34086;51.076;13.722;2022-08-05T05:26:49;30.00;55.40
48264;DHT22;34086;51.076;13.722;2022-08-05T05:27:49;30.00;55.00
48264;DHT22;34086;51.076;13.722;2022-08-05T05:28:52;29.80;55.20
48264;DHT22;34086;51.076;13.722;2022-08-05T05:29:52;29.70;55.60
48264;DHT22;34086;51.076;13.722;2022-08-05T05:30:53;29.60;55.70
48264;DHT22;34086;51.076;13.722;2022-08-05T05:31:53;29.40;55.90
48264;DHT22;34086;51.076;13.722;2022-08-05T05:32:56;29.40;56.20
48264;DHT22;34086;51.076;13.722;2022-08-05T05:34:00;29.40;56.20
48264;DHT22;34086;51.076;13.722;2022-08-05T05:35:00;29.40;56.50
48264;DHT22;34086;51.076;13.722;2022-08-05T05:36:01;29.50;56.50
48264;DHT22;34086;51.076;13.722;2022-08-05T05:37:02;29.40;56.10
48264;DHT22;34086;51.076;13.722;2022-08-05T05:38:03;29.30;56.00
48264;DHT22;34086;51.076;13.722;2022-08-05T05:39:04;29.30;56.30
48264;DHT22;34086;51.076;13.722;2022-08-05T05:40:05;29.40;56.00
48264;DHT22;34086;51.076;13.722;2022-08-05T05:41:06;29.40;55.80
48264;DHT22;34086;51.076;13.722;2022-08-05T05:42:07;29.60;56.00
48264;DHT22;34086;51.076;13.722;2022-08-05T05:43:08;29.80;55.80
48264;DHT22;34086;51.076;13.722;2022-08-05T05:44:09;29.90;55.30
48264;DHT22;34086;51.076;13.722;2022-08-05T05:45:09;30.00;54.90
48264;DHT22;34086;51.076;13.722;2022-08-05T05:46:10;30.10;54.70
48264;DHT22;34086;51.076;13.722;2022-08-05T05:47:11;30.00;54.70
48264;DHT22;34086;51.076;13.722;2022-08-05T05:48:11;30.00;54.90
48264;DHT22;34086;51.076;13.722;2022-08-05T05:49:12;29.90;54.50
48264;DHT22;34086;51.076;13.722;2022-08-05T05:50:17;29.80;54.60
48264;DHT22;34086;51.076;13.722;2022-08-05T05:51:20;29.70;54.90
48264;DHT22;34086;51.076;13.722;2022-08-05T05:52:23;29.60;55.20
48264;DHT22;34086;51.076;13.722;2022-08-05T05:53:23;29.60;55.20
48264;DHT22;34086;51.076;13.722;2022-08-05T05:54:24;29.60;55.90
48264;DHT22;34086;51.076;13.722;2022-08-05T05:55:25;29.60;55.30
48264;DHT22;34086;51.076;13.722;2022-08-05T05:56:27;29.60;55.30
48264;DHT22;34086;51.076;13.722;2022-08-05T05:57:28;29.70;55.40
48264;DHT22;34086;51.076;13.722;2022-08-05T05:58:28;29.70;55.40
48264;DHT22;34086;51.076;13.722;2022-08-05T05:59:29;29.80;55.20
48264;DHT22;34086;51.076;13.722;2022-08-05T06:00:30;29.80;55.20
48264;DHT22;34086;51.076;13.722;2022-08-05T06:01:31;29.90;55.30
48264;DHT22;34086;51.076;13.722;2022-08-05T06:02:32;29.90;55.40
48264;DHT22;34086;51.076;13.722;2022-08-05T06:03:32;29.90;55.30
48264;DHT22;34086;51.076;13.722;2022-08-05T06:04:33;29.90;55.20
48264;DHT22;34086;51.076;13.722;2022-08-05T06:05:34;29.90;55.20
48264;DHT22;34086;51.076;13.722;2022-08-05T06:06:35;29.80;55.30
48264;DHT22;34086;51.076;13.722;2022-08-05T06:07:36;29.80;55.40
48264;DHT22;34086;51.076;13.722;2022-08-05T06:08:37;29.80;55.50
48264;DHT22;34086;51.076;13.722;2022-08-05T06:09:37;29.70;55.70
48264;DHT22;34086;51.076;13.722;2022-08-05T06:10:38;29.60;55.70
48264;DHT22;34086;51.076;13.722;2022-08-05T06:11:39;29.50;55.80
48264;DHT22;34086;51.076;13.722;2022-08-05T06:12:40;29.40;56.10
48264;DHT22;34086;51.076;13.722;2022-08-05T06:13:40;29.00;56.90
48264;DHT22;34086;51.076;13.722;2022-08-05T06:14:41;28.80;57.60
48264;DHT22;34086;51.076;13.722;2022-08-05T06:15:43;28.50;58.40
48264;DHT22;34086;51.076;13.722;2022-08-05T06:16:44;28.20;59.30
48264;DHT22;34086;51.076;13.722;2022-08-05T06:17:45;28.10;59.80
48264;DHT22;34086;51.076;13.722;2022-08-05T06:18:45;27.90;60.20
48264;DHT22;34086;51.076;13.722;2022-08-05T06:19:46;27.80;60.30
48264;DHT22;34086;51.076;13.722;2022-08-05T06:20:47;27.70;61.20
48264;DHT22;34086;51.076;13.722;2022-08-05T06:21:48;27.60;61.00
48264;DHT22;34086;51.076;13.722;2022-08-05T06:22:48;27.50;60.50
48264;DHT22;34086;51.076;13.722;2022-08-05T06:23:49;27.50;60.50
48264;DHT22;34086;51.076;13.722;2022-08-05T06:24:50;27.60;60.20
48264;DHT22;34086;51.076;13.722;2022-08-05T06:25:50;27.60;60.20
48264;DHT22;34086;51.076;13.722;2022-08-05T06:26:51;27.60;60.30
48264;DHT22;34086;51.076;13.722;2022-08-05T06:27:51;27.40;60.20
48264;DHT22;34086;51.076;13.722;2022-08-05T06:28:52;27.40;60.20
48264;DHT22;34086;51.076;13.722;2022-08-05T06:29:53;27.30;60.20
48264;DHT22;34086;51.076;13.722;2022-08-05T06:30:54;27.20;60.70
48264;DHT22;34086;51.076;13.722;2022-08-05T06:31:55;27.20;61.00
48264;DHT22;34086;51.076;13.722;2022-08-05T06:32:55;27.30;60.80
48264;DHT22;34086;51.076;13.722;2022-08-05T06:33:56;27.50;60.50
48264;DHT22;34086;51.076;13.722;2022-08-05T06:34:56;27.60;59.10
48264;DHT22;34086;51.076;13.722;2022-08-05T06:35:57;27.50;58.50
48264;DHT22;34086;51.076;13.722;2022-08-05T06:36:58;27.40;59.40
48264;DHT22;34086;51.076;13.722;2022-08-05T06:37:59;27.40;59.90
48264;DHT22;34086;51.076;13.722;2022-08-05T06:38:59;27.30;59.40